Time;durP1;ratioP1;P1;durP2;ratioP2;P2;SDS_P1;SDS_P2;PMS_P1;PMS_P2;Temp;Humidity;BMP_temperature;BMP_pressure;BME280_temperature;BME280_humidity;BME280_pressure;Samples;Min_cycle;Max_cycle;Signal;HPM_P1;HPM_P2
2023/09/22 00:01:12;;;;;;;8.35;3.75;;;;;;;20.98;85.01;99245.72;5044470;56;1136772;-73
2023/09/22 00:06:18;;;;;;;5.33;3.60;;;;;;;20.95;84.78;99237.56;5063451;56;1136944;-74
2023/09/22 00:11:23;;;;;;;4.03;3.40;;;;;;;20.91;84.45;99240.41;5011786;57;1136583;-74
2023/09/22 00:16:29;;;;;;;11.33;3.83;;;;;;;20.89;84.52;99240.31;5052719;56;1136810;-74
2023/09/22 00:21:35;;;;;;;8.75;4.15;;;;;;;20.82;84.82;99235.48;5021370;57;1138746;-74
2023/09/22 00:26:40;;;;;;;12.15;3.77;;;;;;;20.80;84.63;99241.59;5023711;56;1136707;-74
2023/09/22 00:31:46;;;;;;;5.25;3.27;;;;;;;20.73;85.23;99236.79;5059946;57;1139136;-74
2023/09/22 00:36:56;;;;;;;7.35;3.80;;;;;;;20.67;84.86;99231.23;5004528;57;1137051;-72
2023/09/22 00:42:01;;;;;;;13.80;3.62;;;;;;;20.66;84.83;99240.84;5098791;57;1136766;-72
2023/09/22 00:47:09;;;;;;;6.78;4.80;;;;;;;20.64;84.80;99245.61;5079497;56;1138963;-75
2023/09/22 00:52:18;;;;;;;10.50;3.85;;;;;;;20.61;84.82;99237.48;5185639;55;1136744;-74
2023/09/22 00:57:23;;;;;;;7.08;3.83;;;;;;;20.60;84.86;99239.03;5057265;56;1138742;-73
2023/09/22 01:02:30;;;;;;;6.43;4.87;;;;;;;20.56;85.10;99241.32;5046977;56;1136710;-74
2023/09/22 01:07:35;;;;;;;6.75;4.85;;;;;;;20.53;85.35;99236.89;5015418;57;1136802;-73
2023/09/22 01:12:41;;;;;;;8.63;4.20;;;;;;;20.52;85.49;99223.98;5099660;56;1136724;-73
2023/09/22 01:17:47;;;;;;;6.15;4.42;;;;;;;20.50;85.93;99232.77;5036145;56;1136599;-74
2023/09/22 01:22:53;;;;;;;7.75;4.70;;;;;;;20.51;86.06;99222.33;4923286;57;1136619;-74
2023/09/22 01:27:58;;;;;;;9.53;4.00;;;;;;;20.50;85.86;99226.05;4931749;58;1136833;-74
2023/09/22 01:33:04;;;;;;;12.80;4.22;;;;;;;20.44;86.82;99217.52;5026399;57;1136571;-74
2023/09/22 01:38:23;;;;;;;11.65;3.85;;;;;;;20.43;86.82;99204.30;4944301;57;1139300;-73
2023/09/22 01:43:28;;;;;;;6.13;3.67;;;;;;;20.44;86.64;99211.33;4936729;57;1139028;-75
2023/09/22 01:48:34;;;;;;;6.75;3.75;;;;;;;20.44;86.62;99214.84;4983502;57;1136786;-73
2023/09/22 01:53:40;;;;;;;15.70;5.65;;;;;;;20.45;86.54;99219.69;4997091;57;1136644;-74
2023/09/22 01:58:46;;;;;;;8.68;4.67;;;;;;;20.41;87.06;99215.78;4956213;57;1138750;-73
2023/09/22 02:03:55;;;;;;;14.20;4.45;;;;;;;20.35;87.77;99216.07;5015900;57;1136763;-74
2023/09/22 02:09:00;;;;;;;15.93;5.40;;;;;;;20.29;87.60;99207.55;4996514;57;1139042;-73
2023/09/22 02:14:08;;;;;;;4.97;4.20;;;;;;;20.24;88.30;99208.17;4961685;57;1139050;-74
2023/09/22 02:19:13;;;;;;;6.70;4.20;;;;;;;20.21;88.42;99209.94;4914695;58;1137022;-75
2023/09/22 02:24:19;;;;;;;13.55;4.08;;;;;;;20.17;88.92;99200.66;5016243;57;1136657;-74
2023/09/22 02:29:26;;;;;;;5.75;3.58;;;;;;;20.16;89.07;99195.01;5030808;56;1138917;-72
2023/09/22 02:34:33;;;;;;;9.95;4.55;;;;;;;20.16;89.06;99206.27;4996313;56;1136657;-73
2023/09/22 02:39:38;;;;;;;11.90;5.03;;;;;;;20.13;88.96;99205.34;4930605;58;1136771;-74
2023/09/22 02:44:44;;;;;;;12.53;5.22;;;;;;;20.11;90.33;99202.04;4963463;58;1139023;-74
2023/09/22 02:49:50;;;;;;;9.78;5.12;;;;;;;20.02;90.20;99194.73;5086991;56;1138965;-73
2023/09/22 02:54:57;;;;;;;9.35;4.60;;;;;;;19.95;91.63;99197.97;5083939;56;1136684;-73
2023/09/22 03:00:21;;;;;;;10.03;4.40;;;;;;;19.90;91.78;99198.59;5073378;56;1137030;-73
2023/09/22 03:05:23;;;;;;;7.92;5.08;;;;;;;19.84;92.73;99194.09;5019384;57;1138598;-74
2023/09/22 03:10:30;;;;;;;13.30;4.95;;;;;;;19.82;92.91;99203.38;4970947;56;1136768;-73
2023/09/22 03:15:37;;;;;;;5.92;4.65;;;;;;;19.81;93.29;99205.23;4954453;58;1139013;-73
2023/09/22 03:20:42;;;;;;;10.38;4.00;;;;;;;19.80;92.45;99208.95;4936662;58;1136609;-73
2023/09/22 03:25:48;;;;;;;10.15;4.45;;;;;;;19.78;92.63;99217.72;4958572;57;1138843;-73
2023/09/22 03:30:54;;;;;;;8.18;4.45;;;;;;;19.80;92.85;99223.70;5042037;56;1138808;-74
2023/09/22 03:35:59;;;;;;;8.70;4.60;;;;;;;19.79;93.29;99217.20;5046395;56;1136620;-74
2023/09/22 03:41:07;;;;;;;8.65;5.17;;;;;;;19.76;93.00;99212.25;5185597;55;1136685;-75
2023/09/22 03:46:13;;;;;;;13.85;5.33;;;;;;;19.71;93.80;99210.19;5099825;56;1136800;-73
2023/09/22 03:51:19;;;;;;;8.76;4.72;;;;;;;19.61;93.53;99197.73;5205916;55;1138989;-74
2023/09/22 03:56:25;;;;;;;9.48;4.78;;;;;;;19.62;94.46;99203.41;5163054;55;1136600;-74
2023/09/22 04:01:32;;;;;;;11.03;5.35;;;;;;;19.53;95.16;99200.14;5099556;56;1136901;-73
2023/09/22 04:06:37;;;;;;;11.80;5.75;;;;;;;19.52;95.52;99203.03;5118588;56;1138683;-74
2023/09/22 04:11:43;;;;;;;11.78;4.75;;;;;;;19.46;95.77;99201.13;5098981;56;1138723;-74
2023/09/22 04:16:49;;;;;;;13.48;4.92;;;;;;;19.45;95.99;99210.20;5099644;56;1138988;-73
2023/09/22 04:21:56;;;;;;;8.66;5.12;;;;;;;19.44;96.22;99217.95;5119343;56;1138582;-74
2023/09/22 04:27:07;;;;;;;16.20;6.35;;;;;;;19.44;96.14;99229.50;5185996;55;1136776;-74
2023/09/22 04:32:09;;;;;;;10.98;5.20;;;;;;;19.42;96.20;99234.23;5035658;56;1138750;-73
2023/09/22 04:37:16;;;;;;;14.52;5.48;;;;;;;19.40;96.21;99237.63;5097931;56;1139161;-75
2023/09/22 04:42:22;;;;;;;14.70;4.90;;;;;;;19.39;96.63;99240.55;5020532;56;1139178;-73
2023/09/22 04:47:27;;;;;;;12.90;5.77;;;;;;;19.37;97.04;99226.52;5008503;56;1138880;-74
2023/09/22 04:52:33;;;;;;;13.20;5.23;;;;;;;19.32;98.98;99223.94;5098241;56;1138818;-73
2023/09/22 04:57:40;;;;;;;11.78;4.75;;;;;;;19.27;98.34;99223.72;5108866;56;1138688;-74
2023/09/22 05:02:46;;;;;;;9.55;5.62;;;;;;;19.28;98.12;99250.02;5002145;56;1138727;-74
2023/09/22 05:07:53;;;;;;;28.25;6.12;;;;;;;19.30;98.06;99247.45;4991485;55;1136759;-74
2023/09/22 05:12:59;;;;;;;11.60;5.00;;;;;;;19.31;98.87;99257.14;5015745;56;1138731;-73
2023/09/22 05:18:05;;;;;;;25.40;6.08;;;;;;;19.30;99.30;99254.15;5078974;57;1138958;-73
2023/09/22 05:23:11;;;;;;;18.67;5.33;;;;;;;19.33;98.79;99256.42;4996622;56;1138822;-74
2023/09/22 05:28:17;;;;;;;16.02;4.87;;;;;;;19.39;99.16;99258.81;4997250;57;1138823;-75
2023/09/22 05:33:24;;;;;;;8.70;5.72;;;;;;;19.45;98.85;99274.56;4939279;58;1138607;-74
2023/09/22 05:38:29;;;;;;;14.93;5.53;;;;;;;19.52;99.35;99272.23;4993050;57;1136417;-74
2023/09/22 05:43:35;;;;;;;11.05;5.45;;;;;;;19.60;99.12;99268.50;4994481;56;1138946;-74
2023/09/22 05:48:40;;;;;;;14.13;5.33;;;;;;;19.68;99.49;99268.83;4961607;57;1138727;-74
2023/09/22 05:53:46;;;;;;;10.53;4.40;;;;;;;19.85;99.93;99275.41;5078865;56;1138559;-74
2023/09/22 05:58:52;;;;;;;20.37;5.72;;;;;;;20.01;99.35;99273.08;4988457;57;1138638;-74
2023/09/22 06:03:58;;;;;;;8.90;5.00;;;;;;;20.19;99.31;99266.22;5011807;56;1138956;-74
2023/09/22 06:09:10;;;;;;;12.18;5.55;;;;;;;20.35;98.55;99281.86;5022058;56;1136703;-74
2023/09/22 06:14:12;;;;;;;11.48;5.00;;;;;;;20.42;97.46;99288.59;5092413;56;1138753;-74
2023/09/22 06:19:20;;;;;;;13.37;4.77;;;;;;;20.56;97.57;99291.02;5100564;56;1138986;-75
2023/09/22 06:24:25;;;;;;;10.43;4.72;;;;;;;20.83;97.85;99300.28;5116833;56;1138687;-74
2023/09/22 06:29:31;;;;;;;10.53;5.75;;;;;;;21.09;96.85;99306.84;5098793;56;1138770;-74
2023/09/22 06:34:36;;;;;;;12.15;4.83;;;;;;;21.16;94.80;99311.67;5011184;57;1138883;-74
2023/09/22 06:39:42;;;;;;;8.45;4.12;;;;;;;21.22;94.12;99321.61;5038051;57;1139020;-74
2023/09/22 06:44:47;;;;;;;10.32;4.83;;;;;;;21.25;94.20;99327.05;5014289;57;1136914;-75
2023/09/22 06:49:53;;;;;;;13.08;5.15;;;;;;;21.31;93.86;99331.05;5015935;57;1138706;-74
2023/09/22 06:55:07;;;;;;;9.83;4.47;;;;;;;21.30;93.62;99338.81;5044485;57;1138821;-74
2023/09/22 07:00:16;;;;;;;19.73;8.38;;;;;;;21.33;93.32;99345.63;4934147;57;1136538;-74
2023/09/22 07:05:15;;;;;;;12.35;5.50;;;;;;;21.20;93.30;99351.92;4915753;57;1138612;-74
2023/09/22 07:10:21;;;;;;;7.87;3.93;;;;;;;21.16;94.20;99357.91;4961892;58;1138926;-75
2023/09/22 07:15:26;;;;;;;11.30;4.72;;;;;;;21.21;94.84;99349.54;4931192;57;1136802;-74
2023/09/22 07:20:32;;;;;;;13.55;4.35;;;;;;;21.16;95.01;99341.77;4925771;58;1139034;-74
2023/09/22 07:25:38;;;;;;;13.00;5.00;;;;;;;21.38;96.10;99329.67;4926841;58;1138913;-75
2023/09/22 07:30:45;;;;;;;16.85;5.40;;;;;;;21.52;94.67;99326.36;5009823;56;1138804;-75
2023/09/22 07:35:50;;;;;;;58.85;22.85;;;;;;;21.65;94.35;99327.60;5001609;57;1138743;-74
2023/09/22 07:40:57;;;;;;;13.58;6.70;;;;;;;21.85;93.89;99334.97;4993204;57;1140813;-74
2023/09/22 07:46:04;;;;;;;14.63;5.08;;;;;;;22.11;94.34;99346.06;5015259;57;1138865;-75
2023/09/22 07:51:11;;;;;;;9.88;4.80;;;;;;;22.12;91.93;99366.56;4928591;57;1138973;-75
2023/09/22 07:56:18;;;;;;;11.73;4.33;;;;;;;22.11;92.83;99371.65;5015567;56;1137340;-74
2023/09/22 08:01:24;;;;;;;8.93;4.40;;;;;;;22.14;92.21;99371.20;5016327;57;1138862;-75
2023/09/22 08:06:31;;;;;;;13.85;4.78;;;;;;;22.14;92.21;99371.20;5080104;56;1136887;-74
2023/09/22 08:11:36;;;;;;;19.25;4.47;;;;;;;22.18;92.10;99367.00;4992509;57;1138684;-75
2023/09/22 08:16:42;;;;;;;11.55;5.03;;;;;;;22.22;92.50;99360.13;5016097;56;1138818;-75
2023/09/22 08:21:48;;;;;;;13.62;4.37;;;;;;;22.38;92.71;99372.20;4992362;57;1138859;-74
2023/09/22 08:26:55;;;;;;;10.75;4.28;;;;;;;22.60;92.11;99370.73;4996499;56;1139161;-74
2023/09/22 08:32:01;;;;;;;16.02;4.85;;;;;;;22.82;90.18;99383.23;5015990;56;1138880;-74
2023/09/22 08:37:06;;;;;;;17.20;4.53;;;;;;;22.85;90.31;99368.48;4996658;57;1138815;-75
2023/09/22 08:42:13;;;;;;;8.03;3.83;;;;;;;22.99;90.40;99374.83;5078738;56;1138672;-75
2023/09/22 08:47:21;;;;;;;9.38;4.42;;;;;;;23.05;89.34;99376.63;4996375;57;1136879;-75
2023/09/22 08:52:29;;;;;;;18.65;9.55;;;;;;;23.13;89.75;99368.73;5030562;57;1136708;-75
2023/09/22 08:57:35;;;;;;;13.80;5.55;;;;;;;23.21;89.05;99363.03;5069837;56;1138847;-75
2023/09/22 09:02:42;;;;;;;13.13;5.45;;;;;;;23.30;88.31;99375.66;5076261;56;1139021;-75
2023/09/22 09:07:48;;;;;;;21.93;5.95;;;;;;;23.30;87.85;99377.84;5117464;56;1139213;-74
2023/09/22 09:12:55;;;;;;;10.98;5.55;;;;;;;23.35;88.01;99371.77;5018439;57;1138834;-75
2023/09/22 09:18:04;;;;;;;13.80;4.53;;;;;;;23.39;87.13;99387.77;5023796;56;1138610;-75
2023/09/22 09:23:22;;;;;;;17.25;5.72;;;;;;;23.53;87.38;99383.85;5032475;56;1138696;-76
2023/09/22 09:28:28;;;;;;;11.55;4.90;;;;;;;23.53;86.79;99388.45;4971538;56;1138577;-75
2023/09/22 09:33:34;;;;;;;12.07;4.97;;;;;;;23.52;87.14;99388.16;5009902;57;1138558;-75
2023/09/22 09:38:43;;;;;;;8.60;4.40;;;;;;;23.61;87.83;99386.77;5039865;57;1138857;-75
2023/09/22 09:43:49;;;;;;;14.90;5.60;;;;;;;23.61;86.48;99375.97;5060276;57;1136462;-75
2023/09/22 09:48:57;;;;;;;17.70;5.20;;;;;;;23.53;87.09;99384.41;5000083;57;1138735;-75
2023/09/22 09:54:06;;;;;;;16.55;5.25;;;;;;;23.51;87.26;99388.69;4944515;56;1138630;-75
2023/09/22 09:59:12;;;;;;;10.48;4.83;;;;;;;23.55;87.40;99387.67;5010564;57;1138873;-75
2023/09/22 10:04:20;;;;;;;14.03;4.58;;;;;;;23.47;87.04;99399.08;5124007;56;1138821;-75
2023/09/22 10:09:26;;;;;;;14.06;3.66;;;;;;;23.37;87.24;99415.01;5104711;56;1139023;-75
2023/09/22 10:14:51;;;;;;;9.03;4.50;;;;;;;23.44;88.81;99409.50;5104630;56;1139023;-75
2023/09/22 10:19:56;;;;;;;9.90;4.83;;;;;;;23.56;87.57;99402.81;5081983;56;1136405;-75
2023/09/22 10:25:23;;;;;;;13.40;4.20;;;;;;;23.68;88.00;99404.48;5012422;57;1136612;-75
2023/09/22 10:30:51;;;;;;;11.53;4.33;;;;;;;23.73;86.71;99412.73;4998709;57;1138561;-75
2023/09/22 10:35:58;;;;;;;13.28;4.17;;;;;;;23.74;88.14;99418.42;5014815;57;1138723;-75
2023/09/22 10:41:05;;;;;;;9.70;4.25;;;;;;;23.91;86.49;99420.45;5034586;57;1138929;-75
2023/09/22 10:46:16;;;;;;;9.65;3.87;;;;;;;23.98;84.88;99434.16;5098423;55;1136964;-75
2023/09/22 10:51:23;;;;;;;12.65;3.87;;;;;;;23.93;85.17;99419.17;5089446;55;1136673;-76
2023/09/22 10:56:28;;;;;;;5.28;3.25;;;;;;;23.82;85.47;99424.03;5073016;56;1138779;-75
2023/09/22 11:01:45;;;;;;;11.25;3.55;;;;;;;23.69;86.02;99433.13;5026657;56;1137060;-75
2023/09/22 11:06:50;;;;;;;5.58;3.50;;;;;;;23.47;85.53;99425.23;5014429;56;1138803;-75
2023/09/22 11:11:56;;;;;;;4.42;3.52;;;;;;;23.48;86.66;99433.64;5018092;56;1136568;-75
2023/09/22 11:17:02;;;;;;;3.40;3.10;;;;;;;23.59;86.99;99423.95;4915418;57;1136817;-75
2023/09/22 11:22:09;;;;;;;18.02;4.17;;;;;;;23.67;87.95;99426.34;4939842;58;1136805;-75
2023/09/22 11:27:15;;;;;;;5.80;2.94;;;;;;;24.07;87.94;99435.46;5098376;56;1138951;-75
2023/09/22 11:32:32;;;;;;;8.75;4.25;;;;;;;24.36;86.16;99428.87;5098832;55;1136631;-75
2023/09/22 11:37:39;;;;;;;4.45;2.98;;;;;;;24.46;85.63;99423.69;4996673;55;1136744;-75
2023/09/22 11:42:49;;;;;;;9.18;3.02;;;;;;;24.24;84.38;99432.92;4985412;57;1136701;-75
2023/09/22 11:48:06;;;;;;;4.55;2.58;;;;;;;24.22;85.07;99443.11;4963466;57;1137039;-75
2023/09/22 11:53:19;;;;;;;6.42;2.62;;;;;;;24.40;85.98;99444.92;5034960;56;1136982;-75
2023/09/22 11:58:24;;;;;;;6.80;2.47;;;;;;;24.64;83.44;99453.30;4942172;57;1136896;-77
2023/09/22 12:03:30;;;;;;;7.37;1.90;;;;;;;24.85;81.14;99464.05;5014956;57;1137014;-75
2023/09/22 12:08:36;;;;;;;2.30;2.05;;;;;;;24.84;81.39;99467.81;5056466;56;1136714;-75
2023/09/22 12:13:42;;;;;;;6.53;1.60;;;;;;;24.76;78.68;99482.50;5079818;56;1136672;-75
2023/09/22 12:18:48;;;;;;;6.90;1.90;;;;;;;24.53;79.24;99486.58;5074461;56;1136645;-75
2023/09/22 12:23:54;;;;;;;7.30;1.70;;;;;;;24.27;79.60;99495.97;4977790;56;1136786;-75
2023/09/22 12:29:03;;;;;;;1.70;1.60;;;;;;;24.05;78.24;99498.87;5095341;56;1137003;-75
2023/09/22 12:34:07;;;;;;;3.62;2.35;;;;;;;23.98;78.76;99507.63;5175894;56;1136756;-75
2023/09/22 12:39:13;;;;;;;3.42;2.00;;;;;;;24.00;79.70;99514.94;5107724;56;1136639;-75
2023/09/22 12:44:19;;;;;;;2.55;1.77;;;;;;;23.86;80.57;99508.91;5109864;55;1136750;-74
2023/09/22 12:49:25;;;;;;;2.47;1.70;;;;;;;23.63;80.91;99516.94;5128299;56;1136629;-75
2023/09/22 12:54:30;;;;;;;2.70;1.98;;;;;;;23.40;81.47;99521.64;5029321;56;1136741;-74
2023/09/22 12:59:36;;;;;;;6.42;1.92;;;;;;;23.24;83.22;99523.08;5016482;57;1137095;-75
2023/09/22 13:04:43;;;;;;;6.20;2.50;;;;;;;23.11;84.12;99522.70;5077034;56;1136734;-74
2023/09/22 13:09:49;;;;;;;6.67;2.12;;;;;;;23.03;85.04;99520.84;5074037;56;1136552;-74
2023/09/22 13:14:55;;;;;;;11.30;2.42;;;;;;;22.91;85.47;99522.64;5079867;56;1136984;-75
2023/09/22 13:20:01;;;;;;;7.90;2.17;;;;;;;22.80;86.03;99530.39;5102033;56;1138771;-74
2023/09/22 13:25:08;;;;;;;5.92;2.08;;;;;;;22.68;86.95;99536.19;5159904;55;1136690;-74
2023/09/22 13:30:15;;;;;;;8.15;2.27;;;;;;;22.65;87.97;99544.70;5147111;55;1136568;-75
2023/09/22 13:35:20;;;;;;;11.20;2.42;;;;;;;22.65;88.10;99535.27;4997128;56;1136809;-74
2023/09/22 13:40:26;;;;;;;3.10;2.10;;;;;;;22.61;88.32;99543.48;5081727;56;1138793;-76
2023/09/22 13:45:38;;;;;;;9.33;2.50;;;;;;;22.53;88.15;99541.61;5096286;55;1136836;-74
2023/09/22 13:50:43;;;;;;;;;;;;;;;22.42;87.91;99547.20;5129879;56;1136711;-74
2023/09/22 13:55:49;;;;;;;3.05;2.10;;;;;;;22.36;88.25;99553.45;5006181;57;974108;-75
2023/09/22 14:00:55;;;;;;;2.95;1.87;;;;;;;22.26;88.12;99564.72;4963962;56;1135007;-75
2023/09/22 14:06:00;;;;;;;2.12;2.00;;;;;;;22.21;88.66;99573.97;4986285;57;1137173;-75
2023/09/22 14:11:07;;;;;;;1.85;1.70;;;;;;;22.12;88.80;99576.63;4973941;57;1136726;-74
2023/09/22 14:16:13;;;;;;;8.68;2.30;;;;;;;22.06;89.04;99577.48;5073154;56;1137276;-75
2023/09/22 14:21:19;;;;;;;5.07;1.97;;;;;;;21.94;89.30;99580.00;5005308;56;1136779;-74
2023/09/22 14:26:24;;;;;;;2.22;1.80;;;;;;;21.84;89.18;99572.92;5109804;56;1136774;-74
2023/09/22 14:31:31;;;;;;;5.87;1.60;;;;;;;21.78;89.20;99581.84;5185092;55;1136693;-74
2023/09/22 14:36:36;;;;;;;1.42;1.25;;;;;;;21.74;89.67;99573.36;5098722;56;1136774;-68
2023/09/22 14:41:42;;;;;;;3.20;1.50;;;;;;;21.74;89.27;99571.19;5206228;55;1136863;-68
2023/09/22 14:46:47;;;;;;;3.08;1.42;;;;;;;21.68;89.84;99583.66;5055594;56;1137005;-70
2023/09/22 14:51:53;;;;;;;2.75;2.00;;;;;;;21.63;89.72;99581.29;5012987;56;1136778;-69
2023/09/22 14:56:58;;;;;;;1.40;1.30;;;;;;;21.54;90.02;99593.34;5099803;56;1136916;-67
2023/09/22 15:02:04;;;;;;;1.20;1.10;;;;;;;21.46;89.48;99604.32;5092467;56;1136794;-69
2023/09/22 15:07:10;;;;;;;2.85;1.02;;;;;;;21.34;89.77;99600.95;5117963;55;1136834;-74
2023/09/22 15:12:15;;;;;;;7.37;1.50;;;;;;;21.32;89.80;99596.29;5107857;56;1136535;-74
2023/09/22 15:17:21;;;;;;;8.05;2.00;;;;;;;21.25;90.36;99601.36;5045168;56;1136727;-74
2023/09/22 15:22:29;;;;;;;1.32;1.15;;;;;;;21.22;90.81;99627.36;5084475;56;1136503;-76
2023/09/22 15:27:34;;;;;;;1.10;1.10;;;;;;;21.11;90.93;99646.24;4996019;57;1136698;-73
2023/09/22 15:32:40;;;;;;;2.15;1.40;;;;;;;20.95;91.20;99646.66;4955161;57;1136768;-73
2023/09/22 15:37:45;;;;;;;1.65;1.55;;;;;;;20.88;91.19;99651.23;5067661;56;1136802;-73
2023/09/22 15:42:51;;;;;;;2.02;1.25;;;;;;;20.77;91.11;99651.86;4981221;58;1136808;-74
2023/09/22 15:47:56;;;;;;;3.20;1.10;;;;;;;20.69;90.09;99663.62;5079585;57;1136868;-73
2023/09/22 15:53:02;;;;;;;2.60;1.15;;;;;;;20.51;89.77;99673.61;5067585;55;1136829;-74
2023/09/22 15:58:08;;;;;;;1.10;1.00;;;;;;;20.28;90.12;99674.47;4943229;57;1136780;-73
2023/09/22 16:03:14;;;;;;;6.72;0.88;;;;;;;20.16;90.84;99685.48;4939447;57;1136698;-73
2023/09/22 16:08:20;;;;;;;2.42;1.10;;;;;;;19.99;92.03;99691.20;5004324;57;1136742;-73
2023/09/22 16:13:26;;;;;;;3.90;1.40;;;;;;;19.94;92.60;99702.20;5003211;57;1136840;-73
2023/09/22 16:18:32;;;;;;;3.47;1.20;;;;;;;19.87;94.05;99710.72;4938175;56;1136739;-73
2023/09/22 16:23:37;;;;;;;1.65;1.30;;;;;;;19.63;95.49;99714.22;4969722;57;1136774;-72
2023/09/22 16:28:44;;;;;;;6.15;1.85;;;;;;;19.51;96.03;99714.97;5025415;56;1136564;-73
2023/09/22 16:33:50;;;;;;;1.65;1.52;;;;;;;19.49;97.05;99721.00;4954869;57;1136986;-74
2023/09/22 16:38:55;;;;;;;1.40;1.35;;;;;;;19.36;98.41;99730.30;5064773;56;1136818;-73
2023/09/22 16:44:01;;;;;;;2.10;1.45;;;;;;;19.17;99.47;99719.22;5099826;56;1136797;-73
2023/09/22 16:49:07;;;;;;;9.75;9.00;;;;;;;19.12;99.18;99728.84;5100224;55;1136941;-74
2023/09/22 16:54:13;;;;;;;8.85;2.30;;;;;;;19.08;99.62;99742.34;5027871;56;1142430;-73
2023/09/22 16:59:19;;;;;;;12.45;11.20;;;;;;;19.03;99.42;99746.93;5059280;56;1136363;-74
2023/09/22 17:04:24;;;;;;;4.40;3.85;;;;;;;19.04;99.52;99752.61;4996489;57;1141257;-72
2023/09/22 17:09:30;;;;;;;51.35;42.00;;;;;;;18.97;100.00;99755.22;5009589;56;1136795;-74
2023/09/22 17:14:35;;;;;;;4.95;4.12;;;;;;;18.92;100.00;99757.66;5045412;56;1143068;-72
2023/09/22 17:19:41;;;;;;;2.35;1.80;;;;;;;18.86;100.00;99762.94;4996462;56;1139098;-75
2023/09/22 17:24:47;;;;;;;8.73;5.30;;;;;;;18.69;100.00;99764.20;5074900;56;1138895;-74
2023/09/22 17:29:52;;;;;;;2.42;1.50;;;;;;;18.63;100.00;99777.03;5024440;56;1139021;-75
2023/09/22 17:34:58;;;;;;;8.05;5.65;;;;;;;18.50;100.00;99774.45;5098794;56;1138743;-72
2023/09/22 17:40:05;;;;;;;3.10;1.77;;;;;;;18.32;100.00;99763.86;4983920;56;1138896;-73
2023/09/22 17:45:12;;;;;;;2.05;1.62;;;;;;;18.18;100.00;99778.38;4976776;57;1138728;-75
2023/09/22 17:50:17;;;;;;;2.50;2.27;;;;;;;18.08;100.00;99793.91;5087314;57;1138843;-75
2023/09/22 17:55:24;;;;;;;3.52;3.15;;;;;;;17.88;100.00;99804.31;5088750;56;1138922;-74
2023/09/22 18:00:29;;;;;;;14.07;9.15;;;;;;;17.71;100.00;99808.70;5011053;57;1138886;-72
2023/09/22 18:05:35;;;;;;;2.66;1.66;;;;;;;17.65;100.00;99813.42;5004729;57;1141274;-72
2023/09/22 18:10:41;;;;;;;4.20;3.27;;;;;;;17.47;100.00;99824.41;5045410;57;1138746;-72
2023/09/22 18:15:47;;;;;;;3.98;2.85;;;;;;;17.37;100.00;99823.34;5038843;56;1138706;-72
2023/09/22 18:20:54;;;;;;;3.05;2.65;;;;;;;17.33;100.00;99834.55;5060284;56;1138814;-74
2023/09/22 18:26:05;;;;;;;2.37;2.17;;;;;;;17.16;100.00;99843.20;5002787;56;1138882;-73
2023/09/22 18:31:08;;;;;;;2.90;2.60;;;;;;;17.06;100.00;99839.94;4992775;57;1138751;-72
2023/09/22 18:36:14;;;;;;;3.10;2.37;;;;;;;16.93;100.00;99834.34;4982191;57;1139043;-73
2023/09/22 18:41:19;;;;;;;1.40;1.30;;;;;;;16.90;100.00;99847.55;4930937;57;1138791;-72
2023/09/22 18:46:25;;;;;;;2.40;2.20;;;;;;;16.91;100.00;99848.37;4911475;58;1138765;-72
2023/09/22 18:51:32;;;;;;;3.00;1.30;;;;;;;16.97;100.00;99840.98;4987159;57;1139077;-74
2023/09/22 18:56:39;;;;;;;2.52;1.37;;;;;;;17.00;100.00;99853.98;4971302;57;1139028;-73
2023/09/22 19:01:44;;;;;;;2.42;1.40;;;;;;;17.01;100.00;99859.16;4911433;58;1138875;-73
2023/09/22 19:06:50;;;;;;;1.47;1.30;;;;;;;17.01;100.00;99862.33;4836877;57;1138878;-73
2023/09/22 19:11:55;;;;;;;8.33;4.30;;;;;;;16.97;100.00;99863.18;4929470;57;1138862;-74
2023/09/22 19:17:01;;;;;;;6.47;3.70;;;;;;;17.03;100.00;99862.49;4838288;57;1138819;-73
2023/09/22 19:22:07;;;;;;;1.83;1.40;;;;;;;17.11;100.00;99856.28;4920874;57;1138601;-74
2023/09/22 19:27:12;;;;;;;1.17;1.03;;;;;;;17.18;100.00;99845.19;4927876;58;1138938;-74
2023/09/22 19:32:18;;;;;;;1.40;1.30;;;;;;;17.09;100.00;99856.45;4953680;58;1138697;-73
2023/09/22 19:37:24;;;;;;;1.00;1.00;;;;;;;17.06;100.00;99850.63;4961665;57;1138822;-73
2023/09/22 19:42:29;;;;;;;1.67;1.40;;;;;;;17.03;100.00;99841.12;5062525;56;1138952;-73
2023/09/22 19:47:35;;;;;;;1.20;1.20;;;;;;;17.02;100.00;99852.81;5065921;56;1138714;-73
2023/09/22 19:52:42;;;;;;;1.30;1.20;;;;;;;16.94;100.00;99838.18;5070368;55;1138872;-73
2023/09/22 19:57:53;;;;;;;1.50;1.30;;;;;;;16.93;100.00;99829.84;5021403;57;1138812;-75
2023/09/22 20:02:59;;;;;;;1.00;0.90;;;;;;;16.93;100.00;99829.84;5040758;57;1138710;-73
2023/09/22 20:08:05;;;;;;;1.60;1.50;;;;;;;16.94;100.00;99825.33;5011758;57;1138909;-74
2023/09/22 20:13:11;;;;;;;1.47;1.20;;;;;;;17.01;100.00;99831.61;5009963;57;1138862;-74
2023/09/22 20:18:16;;;;;;;2.47;2.30;;;;;;;17.23;100.00;99840.16;4936471;57;1138809;-73
2023/09/22 20:23:22;;;;;;;6.30;3.10;;;;;;;17.38;100.00;99818.82;4995846;57;1138879;-74
2023/09/22 20:28:28;;;;;;;2.80;2.43;;;;;;;17.53;100.00;99831.22;4976902;56;1138910;-73
2023/09/22 20:33:34;;;;;;;3.20;1.40;;;;;;;17.50;100.00;99826.73;5003590;57;1138906;-75
2023/09/22 20:38:47;;;;;;;2.07;1.97;;;;;;;17.30;100.00;99813.52;5026234;57;1138866;-74
2023/09/22 20:43:54;;;;;;;5.33;3.17;;;;;;;17.44;100.00;99828.77;5026029;56;1138851;-74
2023/09/22 20:49:05;;;;;;;2.20;2.10;;;;;;;17.61;100.00;99836.16;5026210;55;1138682;-74
2023/09/22 20:54:14;;;;;;;3.93;2.03;;;;;;;17.62;100.00;99834.64;5024023;57;1138713;-74
2023/09/22 20:59:19;;;;;;;6.10;3.30;;;;;;;17.62;100.00;99840.49;5004398;56;1138860;-74
2023/09/22 21:04:25;;;;;;;4.17;1.87;;;;;;;17.61;100.00;99846.85;4991999;57;1138880;-74
2023/09/22 21:09:31;;;;;;;1.83;1.33;;;;;;;17.66;100.00;99851.20;5002315;57;1138838;-73
2023/09/22 21:14:37;;;;;;;1.50;1.40;;;;;;;17.74;100.00;99843.08;4950905;57;1138854;-73
2023/09/22 21:19:42;;;;;;;1.57;1.47;;;;;;;17.64;100.00;99830.48;5004324;57;1138761;-74
2023/09/22 21:24:48;;;;;;;1.52;1.42;;;;;;;17.65;100.00;99844.18;5045182;56;1138900;-74
2023/09/22 21:29:53;;;;;;;2.05;1.35;;;;;;;17.46;100.00;99860.17;5043078;57;1138729;-74
2023/09/22 21:34:59;;;;;;;1.93;1.83;;;;;;;17.48;100.00;99838.11;5015795;56;1138905;-74
2023/09/22 21:40:05;;;;;;;4.10;1.70;;;;;;;17.51;100.00;99813.69;5014543;56;1138783;-73
2023/09/22 21:45:11;;;;;;;1.57;1.47;;;;;;;17.47;100.00;99831.92;5072287;56;1138756;-73
2023/09/22 21:50:17;;;;;;;1.55;1.45;;;;;;;17.21;100.00;99838.16;4993660;57;1138557;-73
2023/09/22 21:55:22;;;;;;;3.30;1.73;;;;;;;17.20;100.00;99840.00;4975703;57;1138876;-74
2023/09/22 22:00:28;;;;;;;4.83;1.77;;;;;;;17.21;100.00;99857.70;5066285;57;1138763;-73
2023/09/22 22:05:34;;;;;;;1.80;1.70;;;;;;;17.03;100.00;99880.36;5072997;56;1138768;-73
2023/09/22 22:10:39;;;;;;;3.23;1.73;;;;;;;16.86;100.00;99867.09;4962472;58;1138892;-74
2023/09/22 22:15:45;;;;;;;1.75;1.65;;;;;;;16.77;100.00;99876.66;4996189;57;1139008;-74
2023/09/22 22:20:51;;;;;;;3.92;1.57;;;;;;;16.70;100.00;99902.39;4976264;57;1138985;-73
2023/09/22 22:25:56;;;;;;;1.93;1.57;;;;;;;16.64;100.00;99899.09;5014708;56;1138825;-73
2023/09/22 22:31:02;;;;;;;2.13;1.80;;;;;;;16.61;100.00;99902.07;5006604;56;1138688;-73
2023/09/22 22:36:09;;;;;;;2.20;1.80;;;;;;;16.54;100.00;99909.42;5019746;56;1138709;-73
2023/09/22 22:41:14;;;;;;;2.30;1.33;;;;;;;16.51;100.00;99901.75;5025968;56;1138711;-74
2023/09/22 22:46:20;;;;;;;2.43;2.00;;;;;;;16.52;100.00;99899.41;5045581;57;1138623;-75
2023/09/22 22:51:26;;;;;;;2.57;2.37;;;;;;;16.55;100.00;99907.59;5091453;56;1138646;-74
2023/09/22 22:56:32;;;;;;;3.60;2.40;;;;;;;16.49;100.00;99929.65;5033084;56;1138530;-73
2023/09/22 23:01:38;;;;;;;4.20;2.70;;;;;;;16.43;100.00;99926.31;5129678;56;1138408;-74
2023/09/22 23:06:43;;;;;;;2.52;2.33;;;;;;;16.38;100.00;99918.81;5121018;56;1138581;-74
2023/09/22 23:11:55;;;;;;;2.47;2.27;;;;;;;16.39;100.00;99916.48;5161383;56;1138771;-73
2023/09/22 23:17:03;;;;;;;2.30;2.20;;;;;;;16.42;100.00;99923.31;5125357;56;1138893;-73